• Join FlightAware (Why Join?)
  • Login
  • US Flag 
10:04AM EDT


 

Airport Tracker/Info


-or-


 

Live Flight TrackerFlight Track Log ✈ N785JP ✈ 07-May-2013 ✈ KSHD - KMBT

Flight Track Log - Related Links

Times and Time Zones

All times are in EDT time to prevent confusion due to time zone crossing. See the N785JP flight status page for this flight to view local times or setup timezone preferences in your user account.

Time Position Orientation Groundspeed Altitude Reporting Facility
EDT Latitude Longitude Course Direction KTS MPH feet Rate Location/Type
01:27PM 38.2575 -78.9525 198° South 175 201 5,000  Level Washington Center
01:28PM 38.2281 -78.9644 198° South 156 180 6,300 1,140 Climbing Washington Center
01:29PM 38.1878 -78.9839 201° Southwest 156 180 7,400 1,020 Climbing Washington Center
01:30PM 38.1478 -79.0031 216° Southwest 156 180 8,400 960 Climbing Washington Center
01:31PM 38.1056 -79.0197 197° South 156 180 9,300 960 Climbing Washington Center
01:32PM 38.0569 -79.0411 199° South 162 186 10,400 1,080 Climbing Washington Center
01:33PM 38.0144 -79.0736 211° Southwest 168 193 11,500 960 Climbing Washington Center
01:34PM 37.9739 -79.1006 208° Southwest 174 200 12,400 900 Climbing Washington Center
01:35PM 37.9314 -79.1275 207° Southwest 174 200 13,400 960 Climbing Washington Center
01:36PM 37.9047 -79.1789 237° Southwest 185 213 14,400 1,020 Climbing Washington Center
01:37PM 37.8778 -79.2436 242° Southwest 200 230 15,500 960 Climbing Washington Center
01:38PM 37.8569 -79.3133 249° West 211 243 16,400 840 Climbing Washington Center
01:39PM 37.8400 -79.3917 255° West 222 255 17,300 960 Climbing Washington Center
01:40PM 37.8206 -79.4747 254° West 228 262 18,400 840 Climbing Washington Center
01:41PM 37.8014 -79.5500 252° West 228 262 19,100 540 Climbing Washington Center
01:42PM 37.7800 -79.6275 251° West 234 269 19,600 420 Climbing Washington Center
01:43PM 37.7589 -79.7000 250° West 239 275 20,000 180 Climbing Washington Center
01:44PM 37.7308 -79.7825 247° West 252 290 20,000  Level Washington Center
01:45PM 37.7028 -79.8703 248° West 257 296 20,000  Level Washington Center
01:46PM 37.6908 -79.9719 262° West 262 302 20,000  Level Washington Center
01:47PM 37.6769 -80.0656 259° West 272 313 20,000  Level Washington Center
01:48PM 37.6506 -80.1533 249° West 277 319 20,000  Level Washington Center
01:49PM 37.6286 -80.2333 251° West 277 319 20,000  Level Washington Center
01:50PM 37.6067 -80.3183 252° West 272 313 20,000  Level Washington Center
01:51PM 37.5844 -80.4036 252° West 267 307 20,000  Level Washington Center
01:53PM 37.5361 -80.5597 249° West 258 297 20,000  Level Indianapolis Center
01:54PM 37.5156 -80.6453 253° West 261 300 20,000  Level Indianapolis Center
01:55PM 37.4936 -80.7453 255° West 256 295 20,000  Level Indianapolis Center
01:56PM 37.4728 -80.8281 252° West 255 293 20,000  Level Indianapolis Center
01:57PM 37.4533 -80.9111 254° West 254 292 20,000  Level Indianapolis Center
01:59PM 37.4239 -81.0081 249° West 254 292 20,000  Level Indianapolis Center
02:00PM 37.3958 -81.0878 246° West 255 293 20,000  Level Indianapolis Center
02:01PM 37.3719 -81.1694 250° West 256 295 20,000  Level Indianapolis Center
02:02PM 37.3539 -81.2522 255° West 252 290 20,000  Level Indianapolis Center
02:03PM 37.3264 -81.3492 250° West 253 291 20,000  Level Indianapolis Center
02:04PM 37.3064 -81.4297 253° West 249 287 20,000  Level Indianapolis Center
02:05PM 37.2828 -81.5161 251° West 252 290 20,000  Level Indianapolis Center
02:06PM 37.2622 -81.6000 253° West 251 289 20,000  Level Indianapolis Center
02:07PM 37.2383 -81.6842 250° West 255 293 20,000  Level Indianapolis Center
02:08PM 37.2164 -81.7700 252° West 257 296 20,000  Level Indianapolis Center
02:09PM 37.1889 -81.8692 251° West 257 296 20,000  Level Indianapolis Center
02:10PM 37.1664 -81.9542 252° West 257 296 20,000  Level Indianapolis Center
02:11PM 37.1436 -82.0400 252° West 258 297 20,000  Level Indianapolis Center
02:12PM 37.1211 -82.1250 252° West 259 298 20,000  Level Indianapolis Center
02:13PM 37.0972 -82.2111 251° West 260 299 20,000  Level Indianapolis Center
02:14PM 37.0747 -82.2958 252° West 257 296 20,000  Level Indianapolis Center
02:15PM 37.0475 -82.3944 251° West 257 296 20,000  Level Indianapolis Center
02:16PM 37.0247 -82.4778 251° West 253 291 20,000  Level Indianapolis Center
02:17PM 37.0022 -82.5606 251° West 252 290 20,000  Level Indianapolis Center
02:18PM 36.9792 -82.6444 251° West 254 292 20,000  Level Indianapolis Center
02:19PM 36.9553 -82.7303 251° West 259 298 20,000  Level Indianapolis Center
02:20PM 36.9319 -82.8156 251° West 259 298 20,000  Level Indianapolis Center
02:21PM 36.9089 -82.8989 251° West 258 297 20,000  Level Indianapolis Center
02:22PM 36.8828 -82.9917 251° West 258 297 20,000  Level Indianapolis Center
02:23PM 36.8592 -83.0769 251° West 259 298 20,000  Level Indianapolis Center
02:24PM 36.8358 -83.1600 251° West 256 295 20,000  Level Indianapolis Center
02:25PM 36.8083 -83.2567 250° West 254 292 20,000  Level Indianapolis Center
02:26PM 36.7856 -83.3386 251° West 251 289 20,000  Level Indianapolis Center
02:27PM 36.7622 -83.4200 250° West 249 287 20,000  Level Indianapolis Center
02:28PM 36.7392 -83.5025 251° West 251 289 20,000 -180 Level Indianapolis Center
02:29PM 36.7156 -83.5850 250° West 252 290 19,700 -360 Descending Indianapolis Center
02:30PM 36.6903 -83.6714 250° West 262 302 19,300 -420 Descending Indianapolis Center
02:31PM 36.6614 -83.7739 251° West 268 308 18,900 -480 Descending Indianapolis Center
02:32PM 36.6358 -83.8597 250° West 266 306 18,400 -540 Descending Indianapolis Center
02:34PM 36.6114 -83.9489 251° West 270 311 17,800 -540 Descending Indianapolis Center
02:35PM 36.5869 -84.0367 251° West 268 308 17,300 -540 Descending Indianapolis Center
02:36PM 36.5608 -84.1239 250° West 268 308 16,800 -540 Descending Indianapolis Center
02:37PM 36.5364 -84.2114 251° West 268 308 16,300 -480 Descending Indianapolis Center
02:38PM 36.5064 -84.3086 249° West 265 305 15,900 -240 Descending Indianapolis Center
02:39PM 36.4825 -84.3919 250° West 258 297 15,900  Level Indianapolis Center
02:40PM 36.4589 -84.4731 250° West 251 289 15,900  Level Indianapolis Center
02:41PM 36.4350 -84.5536 250° West 249 287 15,900  Level Indianapolis Center
02:42PM 36.4106 -84.6325 249° West 246 283 15,900  Level Indianapolis Center
02:43PM 36.3831 -84.7272 250° West 244 281 15,900  Level Indianapolis Center
02:44PM 36.3594 -84.8047 249° West 242 278 15,900  Level Indianapolis Center
02:45PM 36.3372 -84.8831 251° West 241 277 15,900  Level Indianapolis Center
02:46PM 36.3136 -84.9617 250° West 243 280 15,900  Level Indianapolis Center
02:47PM 36.2897 -85.0392 249° West 243 280 15,900  Level Indianapolis Center
02:48PM 36.2669 -85.1169 250° West 242 278 15,900  Level Indianapolis Center
02:49PM 36.2386 -85.2103 249° West 242 278 15,900 -240 Level Indianapolis Center
02:50PM 36.2144 -85.2900 249° West 249 287 15,500 -540 Descending Indianapolis Center
02:51PM 36.1822 -85.3917 249° West 256 295 14,800 -720 Descending Memphis Center
02:52PM 36.1564 -85.4781 250° West 261 300 14,000 -780 Descending Memphis Center
02:53PM 36.1303 -85.5592 248° West 261 300 13,300 -840 Descending Memphis Center
02:54PM 36.1042 -85.6403 248° West 261 300 12,400 -960 Descending Memphis Center
02:55PM 36.0781 -85.7217 248° West 256 295 11,400 -1,080 Descending Memphis Center
02:56PM 36.0578 -85.7919 250° West 250 288 10,300 -1,200 Descending Memphis Center
02:57PM 36.0339 -85.8756 251° West 242 278 9,000 -1,200 Descending Memphis Center
02:58PM 36.0114 -85.9461 249° West 234 269 7,900 -1,140 Descending Memphis Center
02:59PM 35.9906 -86.0086 248° West 227 261 6,800 -1,140 Descending Memphis Center
03:00PM 35.9742 -86.0761 253° West 222 255 5,700 -960 Descending Memphis Center
03:01PM 35.9533 -86.1389 248° West 212 244 4,900 -900 Descending Memphis Center
03:02PM 35.9325 -86.2042 249° West 207 238 4,000 -900 Descending Memphis Center
03:03PM 35.9139 -86.2664 250° West 207 238 3,100 -540 Descending Memphis Center
03:04PM 35.8933 -86.3367 250° West 202 232 3,000 420 Descending Memphis Center
03:05PM 35.8706 -86.4069 248° West 202 232 4,000 480 Climbing Memphis Center
03:06PM 35.8517 -86.4719 250° West 202 232 4,000  Level Memphis Center
03:07PM 35.8328 -86.5367 250° West 202 232 4,000  Level Memphis Center
03:08PM 35.8289 -86.5497 250° West 202 232 4,000  Level Memphis Center
03:09PM 35.8289 -86.5497 238° Southwest 202 232 4,000  Level Memphis Center
03:11PM 35.8496 -86.4495 76° East  Level FlightAware Approximate
03:18PM 35.8667 -86.3667 70° East  Level FlightAware Approximate
03:19PM 35.8775 -86.3775 70° East  Level Estimated
03:20PM 35.8775 -86.3775 70° East  Level Estimated
03:21PM 35.8775 -86.3775 70° East  Level Estimated
03:22PM 35.8775 -86.3775 70° East  Level Estimated
03:23PM 35.8775 -86.3775 70° East  Level Estimated
03:24PM 35.8775 -86.3775 70° East  Level Estimated
03:25PM 35.8775 -86.3775 70° East  Level Estimated